首页
METAR-TAF:

METAR-TAF

机场 :

布里奇波特, 康乃狄克州, 美国

纬度: 41-09-30N, 经度: 073-07-44W, 海拔: 3米

当前天气观测

该预报发布于11分钟前的04:52 UTC
风速7节,风向北转东北
温度 4°C
湿度 56%
气压 1030 hPa
能見度: 16.1公里
天空无云

METAR: KBDR 250452Z AUTO 03007KT 10SM CLR 04/M04 A3043 RMK AO2 SLP306 T00441044 400940017

时间: 00:03 (05:03 UTC)

预报

该预报发布于2小时和29分钟前的02:34 UTC
预报有效从25日的 03点(UTC)到 25日的 24点(UTC)
风速5节,风向东北
能見度: 10公里
散云层高于15000英尺
多云层高于25000英尺
从 25日的 0700点(UTC)
风速8节,风向
能見度: 10公里
散云层高于4000英尺
多云层高于10000英尺
从 25日的 1400点(UTC)
风速8节,风向东南
能見度: 10公里
多云层高于4000英尺
从 25日的 1700点(UTC)
风速9节,风向南转西南
能見度: 10公里
多云层高于5000英尺

TAF: KBDR 250234Z 2503/2524 05005KT P6SM SCT150 BKN250 FM250700 08008KT P6SM SCT040 BKN100 FM251400 13008KT P6SM BKN040 FM251700 20009KT P6SM BKN050

超过4000个机场的气象观测和天气预报(METAR&TAF报告)。

可查询的气象台以黄色和红色小点在地图上表示。

将鼠标移到小点上方,可查看气象台名称。

然后点击查看天气观测和预报。

如需切换地图:点击带黑十字的绿色按钮放大地图;点击带横线的绿色按钮缩小地图;或者点击绿色箭头查看邻近地区的地图。


METAR-TAF: